sensor_id;sensor_type;location;lat;lon;timestamp;pressure;altitude;pressure_sealevel;temperature;humidity
46267;BME280;31998;48.798;15.066;2022-09-12T00:02:18;95916.78;;;9.68;100.00
46267;BME280;31998;48.798;15.066;2022-09-12T00:04:43;95912.00;;;9.60;100.00
46267;BME280;31998;48.798;15.066;2022-09-12T00:07:09;95908.22;;;9.61;100.00
46267;BME280;31998;48.798;15.066;2022-09-12T00:09:34;95904.78;;;9.50;100.00
46267;BME280;31998;48.798;15.066;2022-09-12T00:12:00;95911.00;;;9.45;100.00
46267;BME280;31998;48.798;15.066;2022-09-12T00:14:25;95913.16;;;9.38;100.00
46267;BME280;31998;48.798;15.066;2022-09-12T00:16:50;95907.56;;;9.30;100.00
46267;BME280;31998;48.798;15.066;2022-09-12T00:19:16;95902.00;;;9.16;100.00
46267;BME280;31998;48.798;15.066;2022-09-12T00:21:42;95894.53;;;9.03;100.00
46267;BME280;31998;48.798;15.066;2022-09-12T00:24:09;95902.59;;;8.97;100.00
46267;BME280;31998;48.798;15.066;2022-09-12T00:26:35;95886.50;;;8.97;100.00
46267;BME280;31998;48.798;15.066;2022-09-12T00:29:00;95897.22;;;9.03;100.00
46267;BME280;31998;48.798;15.066;2022-09-12T00:31:26;95898.53;;;9.05;100.00
46267;BME280;31998;48.798;15.066;2022-09-12T00:33:55;95891.34;;;8.95;100.00
46267;BME280;31998;48.798;15.066;2022-09-12T00:36:26;95892.94;;;8.96;100.00
46267;BME280;31998;48.798;15.066;2022-09-12T00:38:54;95895.03;;;9.05;100.00
46267;BME280;31998;48.798;15.066;2022-09-12T00:41:23;95901.47;;;9.09;100.00
46267;BME280;31998;48.798;15.066;2022-09-12T00:43:55;95897.44;;;9.06;100.00
46267;BME280;31998;48.798;15.066;2022-09-12T00:46:34;95892.66;;;8.98;100.00
46267;BME280;31998;48.798;15.066;2022-09-12T00:52:19;95883.00;;;8.92;100.00
46267;BME280;31998;48.798;15.066;2022-09-12T00:54:50;95893.25;;;8.85;100.00
46267;BME280;31998;48.798;15.066;2022-09-12T00:57:18;95888.44;;;8.82;100.00
46267;BME280;31998;48.798;15.066;2022-09-12T00:59:55;95888.97;;;8.79;100.00
46267;BME280;31998;48.798;15.066;2022-09-12T01:02:23;95889.81;;;8.74;100.00
46267;BME280;31998;48.798;15.066;2022-09-12T01:04:48;95890.34;;;8.66;100.00
46267;BME280;31998;48.798;15.066;2022-09-12T01:07:15;95883.13;;;8.61;100.00
46267;BME280;31998;48.798;15.066;2022-09-12T01:09:42;95886.06;;;8.60;100.00
46267;BME280;31998;48.798;15.066;2022-09-12T01:12:10;95877.75;;;8.61;100.00
46267;BME280;31998;48.798;15.066;2022-09-12T01:14:35;95873.72;;;8.54;100.00
46267;BME280;31998;48.798;15.066;2022-09-12T01:17:00;95861.69;;;8.46;100.00
46267;BME280;31998;48.798;15.066;2022-09-12T01:31:04;95882.09;;;8.37;100.00
46267;BME280;31998;48.798;15.066;2022-09-12T01:33:38;95862.25;;;8.38;100.00
46267;BME280;31998;48.798;15.066;2022-09-12T01:38:49;95868.41;;;8.43;100.00
46267;BME280;31998;48.798;15.066;2022-09-12T01:47:01;95863.06;;;8.28;100.00
46267;BME280;31998;48.798;15.066;2022-09-12T01:52:23;95872.69;;;8.14;100.00
46267;BME280;31998;48.798;15.066;2022-09-12T01:54:58;95865.22;;;8.16;100.00
46267;BME280;31998;48.798;15.066;2022-09-12T01:57:33;95863.59;;;8.15;100.00
46267;BME280;31998;48.798;15.066;2022-09-12T02:00:05;95861.44;;;8.17;100.00
46267;BME280;31998;48.798;15.066;2022-09-12T02:02:38;95851.81;;;8.11;100.00
46267;BME280;31998;48.798;15.066;2022-09-12T02:10:09;95859.84;;;8.06;100.00
46267;BME280;31998;48.798;15.066;2022-09-12T02:12:45;95851.81;;;8.01;100.00
46267;BME280;31998;48.798;15.066;2022-09-12T02:15:13;95852.34;;;7.98;100.00
46267;BME280;31998;48.798;15.066;2022-09-12T02:17:42;95847.28;;;7.96;100.00
46267;BME280;31998;48.798;15.066;2022-09-12T02:20:24;95847.25;;;7.86;100.00
46267;BME280;31998;48.798;15.066;2022-09-12T02:22:52;95850.22;;;7.89;100.00
46267;BME280;31998;48.798;15.066;2022-09-12T02:25:19;95840.03;;;7.92;100.00
46267;BME280;31998;48.798;15.066;2022-09-12T02:30:12;95835.19;;;8.04;100.00
46267;BME280;31998;48.798;15.066;2022-09-12T02:35:12;95839.75;;;8.03;100.00
46267;BME280;31998;48.798;15.066;2022-09-12T02:40:23;95832.50;;;7.99;100.00
46267;BME280;31998;48.798;15.066;2022-09-12T02:42:49;95837.88;;;7.99;100.00
46267;BME280;31998;48.798;15.066;2022-09-12T02:45:16;95835.19;;;7.99;100.00
46267;BME280;31998;48.798;15.066;2022-09-12T02:47:52;95838.91;;;8.08;100.00
46267;BME280;31998;48.798;15.066;2022-09-12T02:50:21;95838.94;;;8.03;100.00
46267;BME280;31998;48.798;15.066;2022-09-12T02:52:46;95839.22;;;7.91;100.00
46267;BME280;31998;48.798;15.066;2022-09-12T02:55:13;95850.19;;;7.79;100.00
46267;BME280;31998;48.798;15.066;2022-09-12T02:57:38;95842.44;;;7.78;100.00
46267;BME280;31998;48.798;15.066;2022-09-12T03:00:05;95843.53;;;7.77;100.00
46267;BME280;31998;48.798;15.066;2022-09-12T03:05:07;95851.28;;;7.63;100.00
46267;BME280;31998;48.798;15.066;2022-09-12T03:16:50;95837.88;;;7.63;100.00
46267;BME280;31998;48.798;15.066;2022-09-12T03:22:11;95839.22;;;7.45;100.00
46267;BME280;31998;48.798;15.066;2022-09-12T03:24:50;95826.31;;;7.27;100.00
46267;BME280;31998;48.798;15.066;2022-09-12T03:27:28;95837.31;;;7.25;100.00
46267;BME280;31998;48.798;15.066;2022-09-12T03:29:56;95835.69;;;7.29;100.00
46267;BME280;31998;48.798;15.066;2022-09-12T03:32:48;95834.63;;;7.35;100.00
46267;BME280;31998;48.798;15.066;2022-09-12T03:35:15;95819.09;;;7.43;100.00
46267;BME280;31998;48.798;15.066;2022-09-12T03:37:41;95831.47;;;7.64;100.00
46267;BME280;31998;48.798;15.066;2022-09-12T03:40:08;95828.75;;;7.69;100.00
46267;BME280;31998;48.798;15.066;2022-09-12T03:42:34;95830.91;;;7.57;100.00
46267;BME280;31998;48.798;15.066;2022-09-12T03:44:59;95827.97;;;7.53;100.00
46267;BME280;31998;48.798;15.066;2022-09-12T03:47:25;95831.19;;;7.60;100.00
46267;BME280;31998;48.798;15.066;2022-09-12T03:49:50;95836.00;;;7.69;100.00
46267;BME280;31998;48.798;15.066;2022-09-12T03:52:17;95836.81;;;7.74;100.00
46267;BME280;31998;48.798;15.066;2022-09-12T03:54:42;95847.78;;;7.88;100.00
46267;BME280;31998;48.798;15.066;2022-09-12T03:57:08;95836.28;;;8.03;100.00
46267;BME280;31998;48.798;15.066;2022-09-12T03:59:33;95835.44;;;8.07;100.00
46267;BME280;31998;48.798;15.066;2022-09-12T04:01:59;95823.41;;;8.10;100.00
46267;BME280;31998;48.798;15.066;2022-09-12T04:04:24;95833.56;;;8.18;100.00
46267;BME280;31998;48.798;15.066;2022-09-12T04:06:50;95826.03;;;8.25;100.00
46267;BME280;31998;48.798;15.066;2022-09-12T04:09:15;95829.53;;;8.36;100.00
46267;BME280;31998;48.798;15.066;2022-09-12T04:11:40;95834.09;;;8.35;100.00
46267;BME280;31998;48.798;15.066;2022-09-12T04:14:06;95835.97;;;8.20;100.00
46267;BME280;31998;48.798;15.066;2022-09-12T04:16:31;95842.16;;;8.05;100.00
46267;BME280;31998;48.798;15.066;2022-09-12T04:18:57;95835.72;;;8.06;100.00
46267;BME280;31998;48.798;15.066;2022-09-12T04:21:22;95830.88;;;8.08;100.00
46267;BME280;31998;48.798;15.066;2022-09-12T04:23:48;95831.97;;;8.22;100.00
46267;BME280;31998;48.798;15.066;2022-09-12T04:26:17;95837.03;;;8.29;100.00
46267;BME280;31998;48.798;15.066;2022-09-12T04:28:43;95813.44;;;8.26;100.00
46267;BME280;31998;48.798;15.066;2022-09-12T04:31:12;95829.25;;;8.27;100.00
46267;BME280;31998;48.798;15.066;2022-09-12T04:33:39;95823.63;;;8.24;100.00
46267;BME280;31998;48.798;15.066;2022-09-12T04:36:13;95822.56;;;8.25;100.00
46267;BME280;31998;48.798;15.066;2022-09-12T04:38:44;95822.28;;;8.31;100.00
46267;BME280;31998;48.798;15.066;2022-09-12T04:41:24;95822.28;;;8.41;100.00
46267;BME280;31998;48.798;15.066;2022-09-12T04:43:55;95821.97;;;8.53;100.00
46267;BME280;31998;48.798;15.066;2022-09-12T04:46:27;95819.03;;;8.55;100.00
46267;BME280;31998;48.798;15.066;2022-09-12T04:48:53;95821.69;;;8.60;100.00
46267;BME280;31998;48.798;15.066;2022-09-12T04:51:21;95818.97;;;8.70;100.00
46267;BME280;31998;48.798;15.066;2022-09-12T04:53:49;95822.16;;;8.77;100.00
46267;BME280;31998;48.798;15.066;2022-09-12T04:56:15;95815.19;;;8.76;100.00
46267;BME280;31998;48.798;15.066;2022-09-12T04:58:41;95830.44;;;8.86;100.00
46267;BME280;31998;48.798;15.066;2022-09-12T05:01:11;95824.22;;;8.95;100.00
46267;BME280;31998;48.798;15.066;2022-09-12T05:03:38;95814.53;;;9.00;100.00
46267;BME280;31998;48.798;15.066;2022-09-12T05:06:05;95821.75;;;9.04;100.00
46267;BME280;31998;48.798;15.066;2022-09-12T05:08:32;95827.94;;;9.05;100.00
46267;BME280;31998;48.798;15.066;2022-09-12T05:11:01;95831.97;;;9.07;100.00
46267;BME280;31998;48.798;15.066;2022-09-12T05:13:27;95831.66;;;9.14;100.00
46267;BME280;31998;48.798;15.066;2022-09-12T05:15:57;95833.47;;;9.23;100.00
46267;BME280;31998;48.798;15.066;2022-09-12T05:18:23;95827.28;;;9.28;100.00
46267;BME280;31998;48.798;15.066;2022-09-12T05:20:48;95831.22;;;9.41;100.00
46267;BME280;31998;48.798;15.066;2022-09-12T05:23:14;95838.41;;;9.50;100.00
46267;BME280;31998;48.798;15.066;2022-09-12T05:25:56;95837.25;;;9.62;100.00
46267;BME280;31998;48.798;15.066;2022-09-12T05:28:23;95836.38;;;9.71;100.00
46267;BME280;31998;48.798;15.066;2022-09-12T05:33:27;95841.63;;;9.92;100.00
46267;BME280;31998;48.798;15.066;2022-09-12T05:35:52;95844.72;;;10.04;100.00
46267;BME280;31998;48.798;15.066;2022-09-12T05:38:18;95839.25;;;10.14;100.00
46267;BME280;31998;48.798;15.066;2022-09-12T05:40:43;95846.41;;;10.29;100.00
46267;BME280;31998;48.798;15.066;2022-09-12T05:43:08;95843.84;;;10.43;100.00
46267;BME280;31998;48.798;15.066;2022-09-12T05:45:37;95850.44;;;10.55;100.00
46267;BME280;31998;48.798;15.066;2022-09-12T05:48:03;95840.66;;;10.65;100.00
46267;BME280;31998;48.798;15.066;2022-09-12T05:50:28;95846.00;;;10.70;100.00
46267;BME280;31998;48.798;15.066;2022-09-12T05:52:54;95836.25;;;10.74;100.00
46267;BME280;31998;48.798;15.066;2022-09-12T05:55:20;95844.88;;;10.76;100.00
46267;BME280;31998;48.798;15.066;2022-09-12T05:57:45;95838.38;;;10.77;100.00
46267;BME280;31998;48.798;15.066;2022-09-12T06:00:12;95843.69;;;10.82;100.00
46267;BME280;31998;48.798;15.066;2022-09-12T06:02:39;95841.47;;;10.89;100.00
46267;BME280;31998;48.798;15.066;2022-09-12T06:05:05;95845.91;;;10.99;100.00
46267;BME280;31998;48.798;15.066;2022-09-12T06:07:30;95844.41;;;11.11;100.00
46267;BME280;31998;48.798;15.066;2022-09-12T06:09:57;95853.19;;;11.22;100.00
46267;BME280;31998;48.798;15.066;2022-09-12T06:12:23;95842.84;;;11.29;100.00
46267;BME280;31998;48.798;15.066;2022-09-12T06:14:51;95847.50;;;11.43;100.00
46267;BME280;31998;48.798;15.066;2022-09-12T06:17:17;95849.31;;;11.47;100.00
46267;BME280;31998;48.798;15.066;2022-09-12T06:19:43;95845.19;;;11.55;100.00
46267;BME280;31998;48.798;15.066;2022-09-12T06:22:08;95851.06;;;11.57;100.00
46267;BME280;31998;48.798;15.066;2022-09-12T06:24:34;95849.63;;;11.64;100.00
46267;BME280;31998;48.798;15.066;2022-09-12T06:26:59;95847.94;;;11.68;100.00
46267;BME280;31998;48.798;15.066;2022-09-12T06:29:26;95834.84;;;11.81;100.00
46267;BME280;31998;48.798;15.066;2022-09-12T06:31:51;95841.59;;;11.97;100.00
46267;BME280;31998;48.798;15.066;2022-09-12T06:34:17;95848.09;;;11.96;100.00
46267;BME280;31998;48.798;15.066;2022-09-12T06:36:46;95836.41;;;12.01;100.00
46267;BME280;31998;48.798;15.066;2022-09-12T06:39:14;95842.53;;;12.06;100.00
46267;BME280;31998;48.798;15.066;2022-09-12T06:41:40;95849.56;;;12.21;100.00
46267;BME280;31998;48.798;15.066;2022-09-12T06:44:06;95841.50;;;12.35;100.00
46267;BME280;31998;48.798;15.066;2022-09-12T06:46:32;95839.72;;;12.44;100.00
46267;BME280;31998;48.798;15.066;2022-09-12T06:48:58;95843.84;;;12.55;100.00
46267;BME280;31998;48.798;15.066;2022-09-12T06:51:25;95840.84;;;12.70;100.00
46267;BME280;31998;48.798;15.066;2022-09-12T06:53:53;95848.94;;;12.70;100.00
46267;BME280;31998;48.798;15.066;2022-09-12T06:56:21;95839.25;;;12.69;100.00
46267;BME280;31998;48.798;15.066;2022-09-12T06:58:48;95839.94;;;12.61;100.00
46267;BME280;31998;48.798;15.066;2022-09-12T07:03:49;95847.53;;;12.59;100.00
46267;BME280;31998;48.798;15.066;2022-09-12T07:06:16;95846.94;;;12.62;100.00
46267;BME280;31998;48.798;15.066;2022-09-12T07:08:43;95845.84;;;12.63;100.00
46267;BME280;31998;48.798;15.066;2022-09-12T07:13:34;95853.75;;;12.60;100.00
46267;BME280;31998;48.798;15.066;2022-09-12T07:16:03;95854.34;;;12.70;100.00
46267;BME280;31998;48.798;15.066;2022-09-12T07:18:30;95866.16;;;12.74;100.00
46267;BME280;31998;48.798;15.066;2022-09-12T07:20:55;95861.53;;;12.61;100.00
46267;BME280;31998;48.798;15.066;2022-09-12T07:23:21;95874.03;;;12.71;100.00
46267;BME280;31998;48.798;15.066;2022-09-12T07:25:53;95872.34;;;12.75;100.00
46267;BME280;31998;48.798;15.066;2022-09-12T07:28:22;95869.75;;;12.84;100.00
46267;BME280;31998;48.798;15.066;2022-09-12T07:30:48;95865.19;;;12.98;100.00
46267;BME280;31998;48.798;15.066;2022-09-12T07:33:14;95862.97;;;13.00;100.00
46267;BME280;31998;48.798;15.066;2022-09-12T07:35:39;95858.56;;;13.04;100.00
46267;BME280;31998;48.798;15.066;2022-09-12T07:38:04;95864.97;;;13.08;100.00
46267;BME280;31998;48.798;15.066;2022-09-12T07:40:30;95869.78;;;13.11;100.00
46267;BME280;31998;48.798;15.066;2022-09-12T07:42:55;95870.69;;;13.20;100.00
46267;BME280;31998;48.798;15.066;2022-09-12T07:45:21;95878.78;;;13.20;100.00
46267;BME280;31998;48.798;15.066;2022-09-12T07:47:46;95877.88;;;13.11;100.00
46267;BME280;31998;48.798;15.066;2022-09-12T07:50:11;95875.78;;;13.08;100.00
46267;BME280;31998;48.798;15.066;2022-09-12T07:52:37;95880.38;;;13.08;100.00
46267;BME280;31998;48.798;15.066;2022-09-12T07:55:02;95877.09;;;13.11;100.00
46267;BME280;31998;48.798;15.066;2022-09-12T07:57:28;95874.78;;;13.32;100.00
46267;BME280;31998;48.798;15.066;2022-09-12T07:59:53;95875.75;;;13.63;100.00
46267;BME280;31998;48.798;15.066;2022-09-12T08:02:19;95868.91;;;13.66;100.00
46267;BME280;31998;48.798;15.066;2022-09-12T08:04:46;95878.31;;;13.68;100.00
46267;BME280;31998;48.798;15.066;2022-09-12T08:07:12;95880.72;;;13.56;100.00
46267;BME280;31998;48.798;15.066;2022-09-12T08:09:38;95883.34;;;13.61;100.00
46267;BME280;31998;48.798;15.066;2022-09-12T08:12:03;95878.56;;;13.58;100.00
46267;BME280;31998;48.798;15.066;2022-09-12T08:14:29;95884.31;;;13.79;100.00
46267;BME280;31998;48.798;15.066;2022-09-12T08:16:54;95880.53;;;14.02;100.00
46267;BME280;31998;48.798;15.066;2022-09-12T08:19:20;95879.66;;;14.38;100.00
46267;BME280;31998;48.798;15.066;2022-09-12T08:21:47;95879.44;;;14.48;100.00
46267;BME280;31998;48.798;15.066;2022-09-12T08:24:12;95879.34;;;14.39;100.00
46267;BME280;31998;48.798;15.066;2022-09-12T08:26:38;95877.63;;;14.21;100.00
46267;BME280;31998;48.798;15.066;2022-09-12T08:29:03;95890.69;;;14.42;100.00
46267;BME280;31998;48.798;15.066;2022-09-12T08:31:29;95890.34;;;14.97;100.00
46267;BME280;31998;48.798;15.066;2022-09-12T08:34:01;95892.75;;;15.46;100.00
46267;BME280;31998;48.798;15.066;2022-09-12T08:36:27;95886.66;;;15.32;100.00
46267;BME280;31998;48.798;15.066;2022-09-12T08:38:58;95899.22;;;15.19;100.00
46267;BME280;31998;48.798;15.066;2022-09-12T08:41:37;95900.97;;;15.24;100.00
46267;BME280;31998;48.798;15.066;2022-09-12T08:47:10;95895.72;;;15.28;100.00
46267;BME280;31998;48.798;15.066;2022-09-12T08:52:30;95898.94;;;14.90;100.00
46267;BME280;31998;48.798;15.066;2022-09-12T08:54:59;95898.06;;;15.12;100.00
46267;BME280;31998;48.798;15.066;2022-09-12T08:57:25;95900.13;;;15.06;100.00
46267;BME280;31998;48.798;15.066;2022-09-12T08:59:51;95902.78;;;14.98;100.00
46267;BME280;31998;48.798;15.066;2022-09-12T09:08:18;95906.31;;;15.46;100.00
46267;BME280;31998;48.798;15.066;2022-09-12T09:10:58;95898.56;;;15.62;100.00
46267;BME280;31998;48.798;15.066;2022-09-12T09:13:53;95904.47;;;15.73;100.00
46267;BME280;31998;48.798;15.066;2022-09-12T09:16:43;95904.19;;;15.26;100.00
46267;BME280;31998;48.798;15.066;2022-09-12T09:19:15;95901.31;;;15.31;100.00
46267;BME280;31998;48.798;15.066;2022-09-12T09:21:54;95896.34;;;15.73;100.00
46267;BME280;31998;48.798;15.066;2022-09-12T09:24:32;95892.06;;;15.98;100.00
46267;BME280;31998;48.798;15.066;2022-09-12T09:27:08;95891.41;;;16.10;100.00
46267;BME280;31998;48.798;15.066;2022-09-12T09:29:42;95887.72;;;15.88;100.00
46267;BME280;31998;48.798;15.066;2022-09-12T09:32:18;95885.97;;;15.75;100.00
46267;BME280;31998;48.798;15.066;2022-09-12T09:34:46;95900.50;;;15.88;100.00
46267;BME280;31998;48.798;15.066;2022-09-12T09:39:58;95899.84;;;16.17;100.00
46267;BME280;31998;48.798;15.066;2022-09-12T09:42:49;95890.44;;;16.32;100.00
46267;BME280;31998;48.798;15.066;2022-09-12T09:45:22;95887.72;;;16.23;100.00
46267;BME280;31998;48.798;15.066;2022-09-12T09:50:40;95874.66;;;16.98;100.00
46267;BME280;31998;48.798;15.066;2022-09-12T09:53:23;95867.81;;;16.83;100.00
46267;BME280;31998;48.798;15.066;2022-09-12T09:55:52;95871.31;;;16.92;100.00
46267;BME280;31998;48.798;15.066;2022-09-12T09:58:33;95870.47;;;17.00;100.00
46267;BME280;31998;48.798;15.066;2022-09-12T10:01:00;95882.38;;;16.78;100.00
46267;BME280;31998;48.798;15.066;2022-09-12T10:03:53;95865.31;;;17.07;100.00
46267;BME280;31998;48.798;15.066;2022-09-12T10:08:46;95868.91;;;17.29;100.00
46267;BME280;31998;48.798;15.066;2022-09-12T10:18:46;95874.06;;;16.66;100.00
46267;BME280;31998;48.798;15.066;2022-09-12T10:26:26;95882.38;;;16.78;100.00
46267;BME280;31998;48.798;15.066;2022-09-12T10:28:56;95876.72;;;17.30;100.00
46267;BME280;31998;48.798;15.066;2022-09-12T10:31:49;95878.69;;;17.51;100.00
46267;BME280;31998;48.798;15.066;2022-09-12T10:34:28;95876.91;;;16.96;100.00
46267;BME280;31998;48.798;15.066;2022-09-12T10:37:06;95885.72;;;16.75;100.00
46267;BME280;31998;48.798;15.066;2022-09-12T10:39:34;95872.38;;;17.08;100.00
46267;BME280;31998;48.798;15.066;2022-09-12T10:42:01;95882.72;;;17.45;100.00
46267;BME280;31998;48.798;15.066;2022-09-12T10:44:32;95875.00;;;17.26;100.00
46267;BME280;31998;48.798;15.066;2022-09-12T10:47:18;95883.63;;;17.57;100.00
46267;BME280;31998;48.798;15.066;2022-09-12T10:49:43;95873.78;;;17.74;100.00
46267;BME280;31998;48.798;15.066;2022-09-12T10:52:22;95887.19;;;17.49;100.00
46267;BME280;31998;48.798;15.066;2022-09-12T10:54:50;95883.63;;;17.28;100.00
46267;BME280;31998;48.798;15.066;2022-09-12T11:02:29;95876.47;;;17.15;100.00
46267;BME280;31998;48.798;15.066;2022-09-12T11:08:03;95860.66;;;18.30;100.00
46267;BME280;31998;48.798;15.066;2022-09-12T11:10:56;95856.84;;;18.43;100.00
46267;BME280;31998;48.798;15.066;2022-09-12T11:16:42;95861.72;;;18.70;100.00
46267;BME280;31998;48.798;15.066;2022-09-12T11:30:17;95840.06;;;19.47;100.00
46267;BME280;31998;48.798;15.066;2022-09-12T11:33:02;95837.81;;;19.01;100.00
46267;BME280;31998;48.798;15.066;2022-09-12T11:35:34;95850.50;;;18.72;100.00
46267;BME280;31998;48.798;15.066;2022-09-12T11:38:17;95843.88;;;18.28;100.00
46267;BME280;31998;48.798;15.066;2022-09-12T11:41:18;95856.06;;;18.09;100.00
46267;BME280;31998;48.798;15.066;2022-09-12T11:46:35;95847.09;;;18.42;100.00
46267;BME280;31998;48.798;15.066;2022-09-12T11:52:02;95846.78;;;18.89;100.00
46267;BME280;31998;48.798;15.066;2022-09-12T12:03:08;95841.31;;;18.89;100.00
46267;BME280;31998;48.798;15.066;2022-09-12T12:05:54;95838.25;;;19.15;100.00
46267;BME280;31998;48.798;15.066;2022-09-12T12:08:23;95837.25;;;19.56;100.00
46267;BME280;31998;48.798;15.066;2022-09-12T12:10:57;95824.81;;;19.83;100.00
46267;BME280;31998;48.798;15.066;2022-09-12T12:13:30;95828.38;;;20.27;100.00
46267;BME280;31998;48.798;15.066;2022-09-12T12:16:00;95821.06;;;20.16;100.00
46267;BME280;31998;48.798;15.066;2022-09-12T12:18:29;95824.25;;;20.33;100.00
46267;BME280;31998;48.798;15.066;2022-09-12T12:20:56;95825.22;;;20.53;100.00
46267;BME280;31998;48.798;15.066;2022-09-12T12:24:00;95826.59;;;19.91;100.00
46267;BME280;31998;48.798;15.066;2022-09-12T12:34:33;95817.25;;;19.92;100.00
46267;BME280;31998;48.798;15.066;2022-09-12T12:47:38;95802.06;;;19.55;100.00
46267;BME280;31998;48.798;15.066;2022-09-12T12:50:25;95804.78;;;20.07;100.00
46267;BME280;31998;48.798;15.066;2022-09-12T12:53:01;95799.28;;;19.91;100.00
46267;BME280;31998;48.798;15.066;2022-09-12T12:55:32;95806.06;;;19.57;100.00
46267;BME280;31998;48.798;15.066;2022-09-12T12:58:02;95799.91;;;19.48;100.00
46267;BME280;31998;48.798;15.066;2022-09-12T13:00:32;95796.97;;;19.65;100.00
46267;BME280;31998;48.798;15.066;2022-09-12T13:05:43;95788.44;;;19.95;100.00
46267;BME280;31998;48.798;15.066;2022-09-12T13:08:25;95785.84;;;20.14;100.00
46267;BME280;31998;48.798;15.066;2022-09-12T13:11:00;95791.41;;;20.46;100.00
46267;BME280;31998;48.798;15.066;2022-09-12T13:13:51;95780.94;;;20.48;100.00
46267;BME280;31998;48.798;15.066;2022-09-12T13:17:05;95779.41;;;20.35;100.00
46267;BME280;31998;48.798;15.066;2022-09-12T13:19:28;95780.50;;;20.33;100.00
46267;BME280;31998;48.798;15.066;2022-09-12T13:22:00;95778.31;;;20.39;100.00
46267;BME280;31998;48.798;15.066;2022-09-12T13:24:27;95779.91;;;20.68;100.00
46267;BME280;31998;48.798;15.066;2022-09-12T13:26:53;95758.88;;;20.72;100.00
46267;BME280;31998;48.798;15.066;2022-09-12T13:29:23;95753.16;;;20.77;100.00
46267;BME280;31998;48.798;15.066;2022-09-12T13:31:55;95760.47;;;20.57;100.00
46267;BME280;31998;48.798;15.066;2022-09-12T13:39:48;95755.81;;;20.58;100.00
46267;BME280;31998;48.798;15.066;2022-09-12T13:45:02;95756.75;;;20.97;100.00
46267;BME280;31998;48.798;15.066;2022-09-12T13:49:58;95748.47;;;20.94;100.00
46267;BME280;31998;48.798;15.066;2022-09-12T13:52:28;95737.78;;;20.89;100.00
46267;BME280;31998;48.798;15.066;2022-09-12T13:54:57;95743.97;;;20.85;100.00
46267;BME280;31998;48.798;15.066;2022-09-12T13:59:57;95754.34;;;21.27;100.00
46267;BME280;31998;48.798;15.066;2022-09-12T14:02:26;95742.41;;;21.35;100.00
46267;BME280;31998;48.798;15.066;2022-09-12T14:04:53;95742.88;;;21.06;100.00
46267;BME280;31998;48.798;15.066;2022-09-12T14:07:37;95752.28;;;20.89;100.00
46267;BME280;31998;48.798;15.066;2022-09-12T14:10:04;95741.31;;;20.73;100.00
46267;BME280;31998;48.798;15.066;2022-09-12T14:12:37;95756.03;;;20.37;100.00
46267;BME280;31998;48.798;15.066;2022-09-12T14:15:28;95750.88;;;20.48;100.00
46267;BME280;31998;48.798;15.066;2022-09-12T14:17:59;95746.63;;;20.66;100.00
46267;BME280;31998;48.798;15.066;2022-09-12T14:20:27;95746.44;;;21.06;100.00
46267;BME280;31998;48.798;15.066;2022-09-12T14:23:01;95744.66;;;21.14;100.00
46267;BME280;31998;48.798;15.066;2022-09-12T14:25:36;95735.66;;;20.98;100.00
46267;BME280;31998;48.798;15.066;2022-09-12T14:28:05;95734.59;;;21.02;100.00
46267;BME280;31998;48.798;15.066;2022-09-12T14:30:36;95734.03;;;21.28;100.00
46267;BME280;31998;48.798;15.066;2022-09-12T14:40:52;95742.41;;;21.35;100.00
46267;BME280;31998;48.798;15.066;2022-09-12T14:43:31;95731.34;;;20.97;100.00
46267;BME280;31998;48.798;15.066;2022-09-12T14:46:00;95735.84;;;20.89;100.00
46267;BME280;31998;48.798;15.066;2022-09-12T14:48:29;95737.88;;;21.08;100.00
46267;BME280;31998;48.798;15.066;2022-09-12T14:50:56;95723.59;;;21.18;100.00
46267;BME280;31998;48.798;15.066;2022-09-12T14:53:34;95730.75;;;21.23;100.00
46267;BME280;31998;48.798;15.066;2022-09-12T14:58:34;95716.72;;;20.57;100.00
46267;BME280;31998;48.798;15.066;2022-09-12T15:01:02;95730.91;;;20.79;100.00
46267;BME280;31998;48.798;15.066;2022-09-12T15:03:29;95718.53;;;21.01;100.00
46267;BME280;31998;48.798;15.066;2022-09-12T15:05:55;95712.47;;;20.76;100.00
46267;BME280;31998;48.798;15.066;2022-09-12T15:08:21;95727.03;;;20.64;100.00
46267;BME280;31998;48.798;15.066;2022-09-12T15:10:47;95724.31;;;20.48;100.00
46267;BME280;31998;48.798;15.066;2022-09-12T15:13:18;95715.69;;;20.18;100.00
46267;BME280;31998;48.798;15.066;2022-09-12T15:15:50;95722.25;;;20.29;100.00
46267;BME280;31998;48.798;15.066;2022-09-12T15:18:16;95725.59;;;20.39;100.00
46267;BME280;31998;48.798;15.066;2022-09-12T15:20:45;95706.72;;;20.33;100.00
46267;BME280;31998;48.798;15.066;2022-09-12T15:23:18;95709.28;;;20.42;100.00
46267;BME280;31998;48.798;15.066;2022-09-12T15:25:45;95715.03;;;20.53;100.00
46267;BME280;31998;48.798;15.066;2022-09-12T15:28:19;95715.03;;;20.53;100.00
46267;BME280;31998;48.798;15.066;2022-09-12T15:30:46;95718.44;;;20.34;100.00
46267;BME280;31998;48.798;15.066;2022-09-12T15:33:14;95718.34;;;20.30;100.00
46267;BME280;31998;48.798;15.066;2022-09-12T15:35:40;95721.03;;;19.99;100.00
46267;BME280;31998;48.798;15.066;2022-09-12T15:38:05;95727.72;;;20.01;100.00
46267;BME280;31998;48.798;15.066;2022-09-12T15:40:31;95716.97;;;19.93;100.00
46267;BME280;31998;48.798;15.066;2022-09-12T15:42:56;95725.09;;;19.89;100.00
46267;BME280;31998;48.798;15.066;2022-09-12T15:45:25;95718.28;;;19.83;100.00
46267;BME280;31998;48.798;15.066;2022-09-12T15:47:52;95712.75;;;19.67;100.00
46267;BME280;31998;48.798;15.066;2022-09-12T15:50:17;95720.38;;;19.62;100.00
46267;BME280;31998;48.798;15.066;2022-09-12T15:52:43;95724.25;;;19.61;100.00